Burlington, Washington
Current Conditions -  °F | °C
As of 6:35 AM on Monday 20 Oct 2014 (Local Time) from KBVS Reporting Station
Overcast Overcast  
Wind Chill: 61°   Ceiling: 2300
Heat Index: 61°   Visibility: 10mi
Dew Point: 61°   Wind: 10mph
Humidity: 100%   Direction: 150°SSE
Pressure: 29.68"   Gusts: 18mph
Location:  48.48°N, 122.33°W
Report Text: KBVS 201335Z AUTO 15009G16KT 10SM BKN023 OVC034 16/16 A2968 RMK A01 P000
Loading
Personal Weather Stations






























Interactive Weather Map
Tropical Storm Tracking
New forecast layout! Learn more

10-Day Weather Forecast

Advertisements
Track Severe Weather on mobile